createdAt,value
2022-11-27T00:01:23.552Z,98709.31
2022-11-27T00:03:50.314Z,98708.69
2022-11-27T00:06:17.072Z,98705.56
2022-11-27T00:08:43.718Z,98702.06
2022-11-27T00:11:10.357Z,98702.09
2022-11-27T00:13:36.966Z,98705.16
2022-11-27T00:16:03.689Z,98693.91
2022-11-27T00:18:30.389Z,98705.88
2022-11-27T00:20:57.054Z,98701.13
2022-11-27T00:23:23.674Z,98706.59
2022-11-27T00:25:50.303Z,98705.50
2022-11-27T00:28:16.947Z,98702.69
2022-11-27T00:30:43.599Z,98700.91
2022-11-27T00:33:10.229Z,98714.63
2022-11-27T00:35:36.865Z,98714.06
2022-11-27T00:38:03.554Z,98706.56
2022-11-27T00:40:30.151Z,98706.25
2022-11-27T00:42:56.760Z,98709.44
2022-11-27T00:45:23.411Z,98706.69
2022-11-27T00:47:50.079Z,98706.50
2022-11-27T00:50:16.727Z,98710.97
2022-11-27T00:52:43.390Z,98715.97
2022-11-27T00:55:10.034Z,98707.19
2022-11-27T00:57:36.674Z,98711.19
2022-11-27T01:00:03.327Z,98703.75
2022-11-27T01:02:29.987Z,98706.69
2022-11-27T01:04:56.609Z,98710.84
2022-11-27T01:07:23.331Z,98709.78
2022-11-27T01:09:49.974Z,98710.50
2022-11-27T01:12:16.624Z,98719.13
2022-11-27T01:14:43.233Z,98710.84
2022-11-27T01:17:09.846Z,98711.47
2022-11-27T01:19:38.601Z,98702.09
2022-11-27T01:22:05.266Z,98703.84
2022-11-27T01:24:31.926Z,98704.09
2022-11-27T01:26:58.564Z,98699.22
2022-11-27T01:29:25.172Z,98698.06
2022-11-27T01:31:51.790Z,98690.09
2022-11-27T01:34:18.376Z,98692.69
2022-11-27T01:36:45.002Z,98696.72
2022-11-27T01:39:11.589Z,98697.22
2022-11-27T01:41:38.253Z,98689.75
2022-11-27T01:44:04.895Z,98696.66
2022-11-27T01:46:31.621Z,98697.34
2022-11-27T01:48:58.351Z,98703.88
2022-11-27T01:51:24.975Z,98697.59
2022-11-27T01:53:51.617Z,98697.47
2022-11-27T01:56:18.206Z,98709.19
2022-11-27T01:58:44.820Z,98701.97
2022-11-27T02:01:11.459Z,98702.78
2022-11-27T02:03:38.095Z,98696.75
2022-11-27T02:06:04.708Z,98695.69
2022-11-27T02:08:31.405Z,98701.59
2022-11-27T02:10:58.021Z,98695.53
2022-11-27T02:13:24.596Z,98704.44
2022-11-27T02:15:51.269Z,98711.44
2022-11-27T02:18:17.896Z,98713.22
2022-11-27T02:20:44.501Z,98703.16
2022-11-27T02:23:11.100Z,98700.91
2022-11-27T02:25:37.730Z,98707.56
2022-11-27T02:28:04.363Z,98706.00
2022-11-27T02:30:30.959Z,98699.25
2022-11-27T02:32:57.624Z,98698.91
2022-11-27T02:35:24.270Z,98705.75
2022-11-27T02:37:50.908Z,98699.81
2022-11-27T02:40:17.533Z,98704.91
2022-11-27T02:42:44.156Z,98693.06
2022-11-27T02:45:10.840Z,98702.56
2022-11-27T02:47:37.462Z,98704.69
2022-11-27T02:50:04.113Z,98700.66
2022-11-27T02:52:30.757Z,98702.69
2022-11-27T02:54:57.434Z,98693.09
2022-11-27T02:57:24.012Z,98694.28
2022-11-27T02:59:50.615Z,98692.25
2022-11-27T03:02:17.305Z,98691.44
2022-11-27T03:04:43.980Z,98695.09
2022-11-27T03:07:10.696Z,98703.97
2022-11-27T03:09:37.324Z,98703.88
2022-11-27T03:12:03.950Z,98704.44
2022-11-27T03:14:30.558Z,98700.19
2022-11-27T03:16:57.247Z,98695.81
2022-11-27T03:19:23.868Z,98696.50
2022-11-27T03:21:50.514Z,98693.66
2022-11-27T03:24:17.150Z,98690.84
2022-11-27T03:26:43.766Z,98693.06
2022-11-27T03:29:10.407Z,98686.56
2022-11-27T03:31:37.071Z,98686.69
2022-11-27T03:34:03.773Z,98683.72
2022-11-27T03:36:30.432Z,98671.53
2022-11-27T03:38:57.145Z,98668.94
2022-11-27T03:41:23.831Z,98672.34
2022-11-27T03:43:50.422Z,98669.16
2022-11-27T03:46:17.089Z,98668.88
2022-11-27T03:48:43.791Z,98665.25
2022-11-27T03:51:10.435Z,98658.97
2022-11-27T03:53:37.029Z,98657.00
2022-11-27T03:56:09.631Z,98652.16
2022-11-27T03:58:36.790Z,98659.63
2022-11-27T04:01:03.440Z,98661.25
2022-11-27T04:03:30.141Z,98660.31
2022-11-27T04:05:56.792Z,98662.31
2022-11-27T04:08:23.442Z,98669.00
2022-11-27T04:10:50.086Z,98664.75
2022-11-27T04:13:16.749Z,98667.91
2022-11-27T04:15:43.517Z,98664.09
2022-11-27T04:18:10.258Z,98668.28
2022-11-27T04:20:36.896Z,98665.94
2022-11-27T04:23:03.504Z,98666.03
2022-11-27T04:25:30.137Z,98658.84
2022-11-27T04:27:56.765Z,98656.72
2022-11-27T04:30:23.472Z,98661.94
2022-11-27T04:32:50.157Z,98658.69
2022-11-27T04:35:16.773Z,98661.66
2022-11-27T04:37:43.436Z,98663.19
2022-11-27T04:40:10.079Z,98666.13
2022-11-27T04:42:36.730Z,98663.16
2022-11-27T04:45:03.375Z,98661.75
2022-11-27T04:47:30.016Z,98658.44
2022-11-27T04:49:56.682Z,98665.44
2022-11-27T04:52:23.341Z,98652.50
2022-11-27T04:54:49.978Z,98647.00
2022-11-27T04:57:16.693Z,98656.00
2022-11-27T04:59:43.357Z,98647.06
2022-11-27T05:02:09.979Z,98652.81
2022-11-27T05:04:36.638Z,98646.56
2022-11-27T05:07:03.267Z,98640.81
2022-11-27T05:09:29.875Z,98646.16
2022-11-27T05:11:56.559Z,98645.78
2022-11-27T05:14:23.204Z,98645.28
2022-11-27T05:16:49.873Z,98654.06
2022-11-27T05:19:17.000Z,98658.28
2022-11-27T05:21:43.644Z,98654.03
2022-11-27T05:24:10.361Z,98661.84
2022-11-27T05:26:36.993Z,98659.41
2022-11-27T05:29:03.636Z,98667.91
2022-11-27T05:31:30.343Z,98664.53
2022-11-27T05:33:57.123Z,98660.38
2022-11-27T05:36:23.733Z,98663.59
2022-11-27T05:38:50.337Z,98667.09
2022-11-27T05:41:16.971Z,98662.47
2022-11-27T05:43:43.724Z,98673.50
2022-11-27T05:46:10.392Z,98669.28
2022-11-27T05:48:37.095Z,98666.38
2022-11-27T05:51:03.736Z,98657.22
2022-11-27T05:53:30.341Z,98659.81
2022-11-27T05:55:56.996Z,98660.50
2022-11-27T05:58:23.607Z,98655.47
2022-11-27T06:00:50.204Z,98661.34
2022-11-27T06:03:16.915Z,98652.97
2022-11-27T06:05:43.564Z,98654.16
2022-11-27T06:08:10.154Z,98654.47
2022-11-27T06:10:36.782Z,98655.03
2022-11-27T06:13:03.409Z,98653.84
2022-11-27T06:15:30.036Z,98654.22
2022-11-27T06:17:56.708Z,98662.97
2022-11-27T06:20:23.300Z,98664.38
2022-11-27T06:22:49.922Z,98665.75
2022-11-27T06:25:16.535Z,98662.47
2022-11-27T06:27:43.190Z,98671.78
2022-11-27T06:30:09.857Z,98674.88
2022-11-27T06:32:36.481Z,98672.72
2022-11-27T06:35:03.173Z,98672.72
2022-11-27T06:37:29.779Z,98678.50
2022-11-27T06:39:56.400Z,98676.81
2022-11-27T06:42:22.991Z,98672.72
2022-11-27T06:44:49.606Z,98674.13
2022-11-27T06:47:16.230Z,98683.72
2022-11-27T06:49:42.824Z,98681.25
2022-11-27T06:52:09.511Z,98676.06
2022-11-27T06:54:36.175Z,98678.53
2022-11-27T06:57:02.844Z,98671.84
2022-11-27T06:59:29.512Z,98676.91
2022-11-27T07:01:56.117Z,98670.88
2022-11-27T07:04:22.798Z,98677.84
2022-11-27T07:06:49.435Z,98678.97
2022-11-27T07:09:16.032Z,98681.19
2022-11-27T07:11:42.702Z,98682.06
2022-11-27T07:14:09.310Z,98683.16
2022-11-27T07:16:36.042Z,98678.13
2022-11-27T07:19:02.702Z,98677.44
2022-11-27T07:21:29.338Z,98683.16
2022-11-27T07:23:55.962Z,98676.03
2022-11-27T07:26:22.554Z,98676.16
2022-11-27T07:28:49.181Z,98680.84
2022-11-27T07:31:15.873Z,98681.38
2022-11-27T07:33:42.557Z,98679.34
2022-11-27T07:36:09.217Z,98676.84
2022-11-27T07:38:35.819Z,98689.06
2022-11-27T07:41:02.474Z,98691.63
2022-11-27T07:43:29.094Z,98688.81
2022-11-27T07:45:55.789Z,98686.81
2022-11-27T07:48:22.386Z,98690.84
2022-11-27T07:50:49.033Z,98681.59
2022-11-27T07:53:15.653Z,98680.16
2022-11-27T07:55:43.280Z,98687.38
2022-11-27T07:58:09.893Z,98687.63
2022-11-27T08:00:36.573Z,98681.06
2022-11-27T08:03:03.250Z,98679.00
2022-11-27T08:05:29.853Z,98681.44
2022-11-27T08:07:56.550Z,98666.28
2022-11-27T08:10:23.242Z,98672.28
2022-11-27T08:12:49.877Z,98667.00
2022-11-27T08:15:16.509Z,98663.41
2022-11-27T08:17:43.093Z,98665.91
2022-11-27T08:20:09.776Z,98665.69
2022-11-27T08:22:36.419Z,98658.19
2022-11-27T08:25:03.008Z,98655.41
2022-11-27T08:27:29.638Z,98655.06
2022-11-27T08:29:56.266Z,98663.56
2022-11-27T08:32:22.882Z,98667.00
2022-11-27T08:34:49.545Z,98668.72
2022-11-27T08:37:16.203Z,98654.72
2022-11-27T08:39:42.897Z,98655.97
2022-11-27T08:42:10.022Z,98659.41
2022-11-27T08:44:36.653Z,98662.66
2022-11-27T08:47:03.272Z,98659.28
2022-11-27T08:49:29.879Z,98666.59
2022-11-27T08:51:56.495Z,98663.16
2022-11-27T08:54:23.108Z,98665.09
2022-11-27T08:56:49.708Z,98657.38
2022-11-27T08:59:16.313Z,98665.22
2022-11-27T09:01:42.920Z,98662.59
2022-11-27T09:04:09.630Z,98656.66
2022-11-27T09:06:36.387Z,98651.13
2022-11-27T09:09:03.035Z,98650.41
2022-11-27T09:11:29.653Z,98645.84
2022-11-27T09:13:56.247Z,98639.19
2022-11-27T09:16:23.032Z,98639.47
2022-11-27T09:18:49.767Z,98632.53
2022-11-27T09:21:16.425Z,98632.75
2022-11-27T09:23:43.066Z,98624.78
2022-11-27T09:26:09.770Z,98624.03
2022-11-27T09:28:36.446Z,98624.41
2022-11-27T09:31:03.113Z,98621.66
2022-11-27T09:33:29.750Z,98621.03
2022-11-27T09:35:56.418Z,98620.88
2022-11-27T09:38:23.063Z,98617.81
2022-11-27T09:40:49.687Z,98618.47
2022-11-27T09:43:16.341Z,98614.06
2022-11-27T09:45:43.036Z,98608.84
2022-11-27T09:48:09.694Z,98612.59
2022-11-27T09:50:36.332Z,98599.84
2022-11-27T09:53:03.020Z,98599.47
2022-11-27T09:55:29.623Z,98598.31
2022-11-27T09:57:56.248Z,98593.09
2022-11-27T10:00:22.927Z,98585.78
2022-11-27T10:02:49.685Z,98582.28
2022-11-27T10:05:17.199Z,98581.03
2022-11-27T10:07:44.370Z,98575.59
2022-11-27T10:10:11.084Z,98569.88
2022-11-27T10:12:37.730Z,98566.59
2022-11-27T10:15:04.393Z,98557.81
2022-11-27T10:17:31.042Z,98554.84
2022-11-27T10:19:57.678Z,98532.38
2022-11-27T10:22:24.298Z,98533.22
2022-11-27T10:24:50.919Z,98534.03
2022-11-27T10:27:18.815Z,98530.94
2022-11-27T10:29:47.348Z,98522.53
2022-11-27T10:32:46.792Z,98522.50
2022-11-27T10:35:03.460Z,98521.13
2022-11-27T10:37:30.169Z,98514.44
2022-11-27T10:39:56.851Z,98509.16
2022-11-27T10:42:23.589Z,98508.19
2022-11-27T10:44:50.255Z,98504.91
2022-11-27T10:47:16.911Z,98501.63
2022-11-27T10:49:43.572Z,98489.34
2022-11-27T10:52:10.165Z,98486.63
2022-11-27T10:54:36.823Z,98493.97
2022-11-27T10:57:03.462Z,98486.31
2022-11-27T10:59:33.178Z,98478.13
2022-11-27T11:02:01.500Z,98479.88
2022-11-27T11:04:43.525Z,98473.59
2022-11-27T11:07:10.161Z,98478.16
2022-11-27T11:09:36.774Z,98477.75
2022-11-27T11:12:03.444Z,98470.38
2022-11-27T11:14:30.033Z,98478.94
2022-11-27T11:16:56.822Z,98466.19
2022-11-27T11:19:23.484Z,98470.63
2022-11-27T11:21:50.146Z,98461.78
2022-11-27T11:24:16.828Z,98468.22
2022-11-27T11:26:43.515Z,98451.25
2022-11-27T11:29:10.180Z,98452.88
2022-11-27T11:31:36.828Z,98448.47
2022-11-27T11:34:03.594Z,98456.19
2022-11-27T11:36:30.243Z,98456.31
2022-11-27T11:38:56.883Z,98448.94
2022-11-27T11:41:23.776Z,98449.38
2022-11-27T11:43:50.456Z,98444.44
2022-11-27T11:46:17.232Z,98440.25
2022-11-27T11:48:43.970Z,98443.84
2022-11-27T11:51:10.611Z,98433.06
2022-11-27T11:53:37.255Z,98436.66
2022-11-27T11:56:03.894Z,98432.25
2022-11-27T11:58:30.489Z,98426.59
2022-11-27T12:01:26.475Z,98432.75
2022-11-27T12:03:43.791Z,98420.13
2022-11-27T12:06:10.467Z,98413.53
2022-11-27T12:08:37.130Z,98404.78
2022-11-27T12:11:03.798Z,98402.88
2022-11-27T12:13:33.156Z,98409.72
2022-11-27T12:16:00.037Z,98407.00
2022-11-27T12:18:26.637Z,98402.41
2022-11-27T12:20:53.301Z,98394.78
2022-11-27T12:23:19.937Z,98392.59
2022-11-27T12:25:46.549Z,98383.22
2022-11-27T12:28:13.246Z,98387.91
2022-11-27T12:30:39.976Z,98385.75
2022-11-27T12:33:06.626Z,98378.06
2022-11-27T12:35:33.246Z,98376.72
2022-11-27T12:38:00.233Z,98384.47
2022-11-27T12:40:26.992Z,98371.25
2022-11-27T12:42:53.598Z,98374.00
2022-11-27T12:45:20.237Z,98376.25
2022-11-27T12:47:46.863Z,98378.44
2022-11-27T12:50:13.576Z,98376.34
2022-11-27T12:52:40.244Z,98367.88
2022-11-27T12:55:06.879Z,98362.75
2022-11-27T12:57:33.547Z,98365.19
2022-11-27T13:00:00.224Z,98370.41
2022-11-27T13:02:27.040Z,98372.63
2022-11-27T13:04:54.260Z,98376.34
2022-11-27T13:07:20.996Z,98369.69
2022-11-27T13:09:47.619Z,98367.19
2022-11-27T13:12:14.298Z,98364.09
2022-11-27T13:14:41.167Z,98361.13
2022-11-27T13:17:07.894Z,98367.50
2022-11-27T13:19:34.535Z,98364.41
2022-11-27T13:22:01.182Z,98362.78
2022-11-27T13:24:27.822Z,98356.81
2022-11-27T13:26:54.460Z,98355.09
2022-11-27T13:29:21.115Z,98347.72
2022-11-27T13:31:47.816Z,98353.84
2022-11-27T13:34:14.501Z,98350.00
2022-11-27T13:36:41.099Z,98352.47
2022-11-27T13:39:07.737Z,98347.63
2022-11-27T13:41:34.401Z,98351.81
2022-11-27T13:44:01.061Z,98348.13
2022-11-27T13:46:27.726Z,98355.19
2022-11-27T13:48:54.343Z,98352.06
2022-11-27T13:51:20.953Z,98343.75
2022-11-27T13:53:47.597Z,98346.84
2022-11-27T13:56:14.238Z,98345.22
2022-11-27T13:58:40.865Z,98347.84
2022-11-27T14:01:07.569Z,98338.78
2022-11-27T14:03:34.311Z,98331.78
2022-11-27T14:06:00.979Z,98326.56
2022-11-27T14:08:27.615Z,98327.53
2022-11-27T14:10:54.251Z,98326.00
2022-11-27T14:13:24.888Z,98325.63
2022-11-27T14:15:54.267Z,98328.25
2022-11-27T14:18:20.956Z,98327.97
2022-11-27T14:20:47.597Z,98331.81
2022-11-27T14:23:14.344Z,98327.75
2022-11-27T14:25:41.101Z,98330.94
2022-11-27T14:28:07.727Z,98332.91
2022-11-27T14:30:34.363Z,98324.47
2022-11-27T14:33:01.026Z,98328.16
2022-11-27T14:35:27.635Z,98322.75
2022-11-27T14:37:54.299Z,98339.78
2022-11-27T14:40:20.967Z,98337.53
2022-11-27T14:42:47.632Z,98327.56
2022-11-27T14:45:14.239Z,98324.25
2022-11-27T14:47:40.859Z,98325.97
2022-11-27T14:50:07.503Z,98341.31
2022-11-27T14:52:34.245Z,98340.53
2022-11-27T14:55:00.915Z,98337.75
2022-11-27T14:57:27.576Z,98339.41
2022-11-27T14:59:54.219Z,98339.41
2022-11-27T15:02:26.057Z,98336.63
2022-11-27T15:04:55.506Z,98342.03
2022-11-27T15:07:22.290Z,98345.63
2022-11-27T15:09:49.416Z,98344.91
2022-11-27T15:12:16.266Z,98339.94
2022-11-27T15:14:42.890Z,98340.88
2022-11-27T15:17:09.630Z,98337.56
2022-11-27T15:19:36.273Z,98340.44
2022-11-27T15:22:02.905Z,98345.50
2022-11-27T15:24:29.523Z,98337.41
2022-11-27T15:26:56.185Z,98334.44
2022-11-27T15:29:22.811Z,98331.94
2022-11-27T15:31:49.507Z,98328.78
2022-11-27T15:34:16.199Z,98325.13
2022-11-27T15:36:42.802Z,98322.31
2022-11-27T15:39:09.479Z,98328.38
2022-11-27T15:41:40.850Z,98320.09
2022-11-27T15:44:10.064Z,98324.38
2022-11-27T15:46:36.818Z,98312.34
2022-11-27T15:49:03.455Z,98318.03
2022-11-27T15:51:30.037Z,98320.53
2022-11-27T15:53:56.712Z,98322.00
2022-11-27T15:56:23.360Z,98314.44
2022-11-27T15:58:50.067Z,98320.59
2022-11-27T16:01:16.908Z,98322.09
2022-11-27T16:03:43.591Z,98328.31
2022-11-27T16:06:10.257Z,98328.84
2022-11-27T16:08:38.711Z,98323.50
2022-11-27T16:11:05.437Z,98317.75
2022-11-27T16:13:32.091Z,98314.25
2022-11-27T16:15:58.772Z,98316.66
2022-11-27T16:18:25.434Z,98318.75
2022-11-27T16:20:52.054Z,98318.66
2022-11-27T16:23:18.682Z,98315.34
2022-11-27T16:25:45.279Z,98319.31
2022-11-27T16:28:11.909Z,98308.28
2022-11-27T16:30:41.679Z,98305.13
2022-11-27T16:33:08.348Z,98302.81
2022-11-27T16:35:34.989Z,98295.94
2022-11-27T16:38:01.616Z,98300.06
2022-11-27T16:40:28.242Z,98296.06
2022-11-27T16:42:54.901Z,98296.34
2022-11-27T16:45:21.631Z,98296.81
2022-11-27T16:47:48.314Z,98297.09
2022-11-27T16:50:14.976Z,98287.00
2022-11-27T16:52:41.574Z,98289.31
2022-11-27T16:55:08.237Z,98281.81
2022-11-27T16:57:34.866Z,98283.81
2022-11-27T17:00:01.615Z,98285.53
2022-11-27T17:02:28.398Z,98279.59
2022-11-27T17:04:54.998Z,98279.06
2022-11-27T17:07:21.704Z,98281.84
2022-11-27T17:09:48.336Z,98269.19
2022-11-27T17:12:14.946Z,98270.13
2022-11-27T17:14:41.992Z,98275.22
2022-11-27T17:17:08.841Z,98269.31
2022-11-27T17:19:35.450Z,98269.19
2022-11-27T17:22:02.103Z,98273.19
2022-11-27T17:24:28.739Z,98272.63
2022-11-27T17:26:55.456Z,98265.34
2022-11-27T17:29:22.116Z,98269.59
2022-11-27T17:31:48.874Z,98261.34
2022-11-27T17:34:15.597Z,98266.59
2022-11-27T17:36:42.237Z,98271.84
2022-11-27T17:39:08.899Z,98269.09
2022-11-27T17:41:35.526Z,98271.03
2022-11-27T17:44:02.121Z,98270.47
2022-11-27T17:46:28.740Z,98270.47
2022-11-27T17:48:55.354Z,98272.38
2022-11-27T17:51:22.211Z,98275.69
2022-11-27T17:53:48.880Z,98271.97
2022-11-27T17:56:15.538Z,98270.19
2022-11-27T17:58:42.198Z,98263.31
2022-11-27T18:01:08.900Z,98267.16
2022-11-27T18:03:35.528Z,98263.97
2022-11-27T18:06:02.216Z,98265.31
2022-11-27T18:08:28.829Z,98260.44
2022-11-27T18:10:55.872Z,98261.25
2022-11-27T18:13:22.629Z,98254.22
2022-11-27T18:15:49.267Z,98257.16
2022-11-27T18:18:15.901Z,98256.47
2022-11-27T18:20:42.596Z,98263.59
2022-11-27T18:23:09.242Z,98261.94
2022-11-27T18:25:35.884Z,98265.41
2022-11-27T18:28:02.460Z,98261.63
2022-11-27T18:30:29.139Z,98268.25
2022-11-27T18:32:55.809Z,98265.38
2022-11-27T18:35:22.484Z,98262.50
2022-11-27T18:37:49.178Z,98260.31
2022-11-27T18:40:15.803Z,98248.75
2022-11-27T18:42:42.446Z,98247.94
2022-11-27T18:45:25.313Z,98250.31
2022-11-27T18:47:55.710Z,98249.78
2022-11-27T18:50:25.562Z,98242.41
2022-11-27T18:52:56.052Z,98248.75
2022-11-27T18:55:22.686Z,98237.22
2022-11-27T18:57:49.328Z,98240.75
2022-11-27T19:00:15.945Z,98241.75
2022-11-27T19:02:42.657Z,98231.41
2022-11-27T19:05:09.313Z,98239.09
2022-11-27T19:07:36.042Z,98250.56
2022-11-27T19:10:02.789Z,98247.34
2022-11-27T19:12:29.433Z,98244.75
2022-11-27T19:14:56.064Z,98240.41
2022-11-27T19:17:24.727Z,98229.72
2022-11-27T19:19:55.094Z,98234.72
2022-11-27T19:22:21.933Z,98237.72
2022-11-27T19:24:48.574Z,98242.41
2022-11-27T19:27:15.241Z,98235.81
2022-11-27T19:29:41.992Z,98227.88
2022-11-27T19:32:08.876Z,98233.34
2022-11-27T19:34:35.634Z,98237.97
2022-11-27T19:37:02.310Z,98230.91
2022-11-27T19:39:29.161Z,98235.72
2022-11-27T19:41:55.774Z,98236.19
2022-11-27T19:44:22.588Z,98232.78
2022-11-27T19:46:49.405Z,98237.06
2022-11-27T19:49:16.036Z,98228.81
2022-11-27T19:51:42.781Z,98228.81
2022-11-27T19:54:10.569Z,98229.13
2022-11-27T19:56:37.432Z,98225.94
2022-11-27T19:59:04.080Z,98213.97
2022-11-27T20:01:30.836Z,98199.16
2022-11-27T20:03:57.506Z,98197.53
2022-11-27T20:06:24.204Z,98199.47
2022-11-27T20:08:50.862Z,98202.47
2022-11-27T20:11:17.468Z,98208.38
2022-11-27T20:13:44.147Z,98207.53
2022-11-27T20:16:10.815Z,98195.63
2022-11-27T20:18:37.494Z,98198.06
2022-11-27T20:21:04.099Z,98197.25
2022-11-27T20:23:30.841Z,98190.22
2022-11-27T20:25:57.490Z,98186.94
2022-11-27T20:28:24.146Z,98183.22
2022-11-27T20:30:50.882Z,98184.16
2022-11-27T20:33:17.578Z,98182.66
2022-11-27T20:35:44.186Z,98180.31
2022-11-27T20:38:10.862Z,98181.56
2022-11-27T20:40:37.509Z,98183.09
2022-11-27T20:43:04.128Z,98181.84
2022-11-27T20:45:30.834Z,98179.50
2022-11-27T20:47:57.591Z,98176.91
2022-11-27T20:50:24.466Z,98182.38
2022-11-27T20:52:51.045Z,98181.13
2022-11-27T20:55:17.715Z,98181.41
2022-11-27T20:57:44.430Z,98178.88
2022-11-27T21:00:11.040Z,98172.84
2022-11-27T21:02:37.766Z,98167.31
2022-11-27T21:05:04.445Z,98167.44
2022-11-27T21:07:31.134Z,98164.81
2022-11-27T21:09:57.842Z,98156.31
2022-11-27T21:12:24.521Z,98159.47
2022-11-27T21:14:51.191Z,98157.16
2022-11-27T21:17:17.786Z,98150.78
2022-11-27T21:19:44.600Z,98151.28
2022-11-27T21:22:11.185Z,98144.81
2022-11-27T21:24:37.794Z,98146.31
2022-11-27T21:27:04.493Z,98146.03
2022-11-27T21:29:31.159Z,98146.72
2022-11-27T21:31:57.895Z,98147.13
2022-11-27T21:34:24.555Z,98142.47
2022-11-27T21:36:51.221Z,98142.19
2022-11-27T21:39:17.859Z,98142.06
2022-11-27T21:41:44.495Z,98139.28
2022-11-27T21:44:11.110Z,98140.00
2022-11-27T21:46:37.803Z,98144.72
2022-11-27T21:49:04.425Z,98147.88
2022-11-27T21:51:31.084Z,98143.03
2022-11-27T21:53:57.766Z,98138.47
2022-11-27T21:56:24.368Z,98136.97
2022-11-27T21:58:51.037Z,98136.19
2022-11-27T22:01:17.762Z,98127.91
2022-11-27T22:03:44.472Z,98131.72
2022-11-27T22:06:11.105Z,98131.44
2022-11-27T22:08:37.806Z,98125.91
2022-11-27T22:11:04.441Z,98132.16
2022-11-27T22:13:31.081Z,98137.09
2022-11-27T22:15:57.694Z,98126.75
2022-11-27T22:18:24.309Z,98127.53
2022-11-27T22:20:50.990Z,98131.09
2022-11-27T22:23:17.657Z,98132.47
2022-11-27T22:25:44.343Z,98126.47
2022-11-27T22:28:10.954Z,98126.94
2022-11-27T22:30:37.642Z,98119.59
2022-11-27T22:33:04.361Z,98125.66
2022-11-27T22:35:30.974Z,98118.69
2022-11-27T22:37:57.582Z,98119.09
2022-11-27T22:40:24.224Z,98124.09
2022-11-27T22:42:50.868Z,98118.63
2022-11-27T22:45:17.555Z,98125.75
2022-11-27T22:47:44.171Z,98128.84
2022-11-27T22:50:10.780Z,98127.94
2022-11-27T22:52:37.421Z,98126.09
2022-11-27T22:55:04.052Z,98124.09
2022-11-27T22:57:30.699Z,98124.44
2022-11-27T22:59:57.312Z,98129.59
2022-11-27T23:02:23.965Z,98116.41
2022-11-27T23:04:50.668Z,98122.16
2022-11-27T23:07:22.317Z,98117.09
2022-11-27T23:09:51.534Z,98112.34
2022-11-27T23:12:18.218Z,98115.13
2022-11-27T23:14:44.966Z,98108.97
2022-11-27T23:17:11.745Z,98103.75
2022-11-27T23:19:38.458Z,98097.09
2022-11-27T23:22:05.191Z,98103.25
2022-11-27T23:24:31.850Z,98098.25
2022-11-27T23:26:58.532Z,98087.31
2022-11-27T23:29:25.180Z,98085.69
2022-11-27T23:31:51.823Z,98079.94
2022-11-27T23:34:18.495Z,98094.22
2022-11-27T23:36:45.075Z,98085.69
2022-11-27T23:39:11.738Z,98081.06
2022-11-27T23:41:38.427Z,98078.44
2022-11-27T23:44:05.053Z,98074.72
2022-11-27T23:46:31.704Z,98073.22
2022-11-27T23:48:58.330Z,98071.09
2022-11-27T23:51:24.973Z,98068.41
2022-11-27T23:53:51.696Z,98061.31
2022-11-27T23:56:18.325Z,98060.69
2022-11-27T23:58:47.320Z,98057.44
